This is the latest recevied weather packets stored in our database for station/object LROP. If no packets are shown the sender has not sent any weather packets the latest 10 day(s).
| Time | Temp. | Humidity | Pressure | Rain* | Wind** | Luminosity | Snow |
|---|---|---|---|---|---|---|---|
| 1777289583 | 15° C | 27% | 1024 hPa | - | - | - | - |
| 1777288682 | 13.89° C | 27% | 1024 hPa | - | - | - | - |
| 1777287845 | 13.89° C | 27% | 1024 hPa | - | - | - | - |
| 1777286882 | 13.89° C | 29% | 1025 hPa | - | - | - | - |
| 1777285983 | 13.89° C | 29% | 1025 hPa | - | - | - | - |
| 1777285082 | 13.89° C | 29% | 1025 hPa | - | - | - | - |
| 1777284182 | 13.89° C | 29% | 1025 hPa | - | - | - | - |
| 1777283282 | 13.89° C | 31% | 1025 hPa | - | - | - | - |
| 1777282382 | 13.89° C | 31% | 1025 hPa | - | - | - | - |
| 1777281483 | 12.78° C | 31% | 1026 hPa | - | - | - | - |
| 1777280582 | 12.78° C | 31% | 1026 hPa | - | - | - | - |
| 1777279682 | 12.22° C | 35% | 1026 hPa | - | - | - | - |
| 1777278783 | 12.22° C | 35% | 1026 hPa | - | - | - | - |
| 1777277883 | 12.78° C | 31% | 1026 hPa | - | - | - | - |
| 1777276982 | 12.78° C | 31% | 1026 hPa | - | - | - | - |
| 1777276082 | 12.22° C | 30% | 1026 hPa | - | - | - | - |
| 1777275182 | 12.22° C | 30% | 1026 hPa | - | - | - | - |
| 1777274283 | 11.11° C | 35% | 1026 hPa | - | - | - | - |
| 1777273382 | 11.11° C | 35% | 1026 hPa | - | - | - | - |
| 1777272482 | 11.11° C | 35% | 1026 hPa | - | - | - | - |
| 1777271583 | 11.11° C | 35% | 1026 hPa | - | - | - | - |
| 1777270683 | 10° C | 40% | 1026 hPa | - | - | - | - |
| 1777269782 | 10° C | 40% | 1026 hPa | - | - | - | - |
| 1777267982 | 7.78° C | 46% | 1026 hPa | - | - | - | - |
| 1777267082 | 7.22° C | 49% | 1026 hPa | - | - | - | - |
* Rain since midnight (hover to see other rain measurements)
** Current wind speed in m/s (hover to see current wind gust speed)